Terminal Aerodrome Forecast
Issued by NWS Boston, MA

Home | Current Version | Previous Version | Text Only | Print | Product List | Glossary On
Versions: 1 2 3 4 5 6 7 8 9 10 11 12 13 14 15 16 17 18 19 20
000
FTUS41 KBOX 250013 AAA
TAFORH
TAF AMD
KORH 250013Z 2500/2524 02018G24KT 3SM -FZRA BR OVC003
     FM250500 35018G30KT 2SM -FZRA BR OVC008
     FM250900 31018G28KT P6SM BKN025
     FM251200 31014G25KT P6SM BKN035
     FM252100 28009KT P6SM FEW250=

USA.gov is the U.S. government's official web portal to all federal, state and local government web resources and services.